LVK weather

Livermore Municipal Airport
Livermore, California, United States

Public forecast

Using degrees Fahrenheit for public forecast. Weather courtesy of forecast.io.

Current aviation weather report (METAR) for Livermore Municipal Airport

Retrieved 2020/06/06 17:53 UTC (18 minutes ago):

KLVK 061753Z 26014G19KT 10SM CLR 18/08 A2996 RMK AO2 SLP141 T01830083 10189 20117 51009

Aviation forecast (TAF) for Livermore Municipal Airport

Retrieved 2020/06/06 18:42 UTC (0 seconds ago):

TAF KLVK 061739Z 0618/0718 25012G16KT P6SM FEW027 FM062100 26017G25KT P6SM SKC FM070400 24013G19KT P6SM SKC FM070800 24010KT P6SM SKC FM071700 24012G16KT P6SM SKC